Time;durP1;ratioP1;P1;durP2;ratioP2;P2;SDS_P1;SDS_P2;PMS_P1;PMS_P2;Temp;Humidity;BMP_temperature;BMP_pressure;BME280_temperature;BME280_humidity;BME280_pressure;Samples;Min_cycle;Max_cycle;Signal;HPM_P1;HPM_P2
2023/04/19 05:06:49;;;;;;;29.98;6.88;;;14.30;64.40;;;;;;5881774;23;21386;-76
2023/04/19 05:09:15;;;;;;;36.78;6.43;;;14.40;65.20;;;;;;4899410;29;20456;-75
2023/04/19 05:11:41;;;;;;;26.25;6.55;;;14.40;65.20;;;;;;4891671;29;20044;-76
2023/04/19 05:14:07;;;;;;;31.73;5.72;;;14.50;65.80;;;;;;4898220;29;20047;-77
2023/04/19 05:16:39;;;;;;;21.23;5.10;;;14.50;65.70;;;;;;4899650;29;20135;-78
2023/04/19 05:19:04;;;;;;;33.30;5.53;;;14.60;66.60;;;;;;4901231;29;20040;-78
2023/04/19 05:21:33;;;;;;;29.77;5.38;;;14.70;66.00;;;;;;4904192;29;20107;-77
2023/04/19 05:23:59;;;;;;;33.72;5.75;;;14.80;66.20;;;;;;4903838;29;20060;-79
2023/04/19 05:26:24;;;;;;;21.27;5.40;;;14.90;66.40;;;;;;4916442;29;20052;-77
2023/04/19 05:28:50;;;;;;;33.00;5.55;;;14.90;60.00;;;;;;4922261;29;20063;-76
2023/04/19 05:31:17;;;;;;;38.95;6.60;;;14.90;64.90;;;;;;4922127;29;20040;-77
2023/04/19 05:33:42;;;;;;;30.48;6.47;;;15.00;65.70;;;;;;4904211;29;20056;-79
2023/04/19 05:36:08;;;;;;;30.80;4.90;;;15.10;65.80;;;;;;4922235;29;20067;-76
2023/04/19 05:38:34;;;;;;;33.50;6.15;;;15.20;65.70;;;;;;4921981;29;20059;-77
2023/04/19 05:41:01;;;;;;;36.30;5.63;;;15.20;65.60;;;;;;4889355;29;20374;-80
2023/04/19 05:43:26;;;;;;;34.97;6.32;;;15.30;65.70;;;;;;4891113;29;20052;-78
2023/04/19 05:45:52;;;;;;;34.42;6.00;;;15.30;65.40;;;;;;4903216;29;20044;-74
2023/04/19 05:48:18;;;;;;;37.58;6.45;;;15.30;65.10;;;;;;4903111;29;20054;-75
2023/04/19 05:50:43;;;;;;;30.13;6.13;;;15.30;64.30;;;;;;4902826;29;20443;-74
2023/04/19 05:53:09;;;;;;;35.92;6.68;;;15.30;60.80;;;;;;4902348;29;20123;-74
2023/04/19 05:55:35;;;;;;;36.50;7.47;;;15.10;62.30;;;;;;4901729;29;20070;-76
2023/04/19 05:58:01;;;;;;;42.45;8.00;;;15.10;63.50;;;;;;4902817;29;20087;-73
2023/04/19 06:00:27;;;;;;;41.85;7.82;;;15.10;64.10;;;;;;4902751;29;20052;-74
2023/04/19 06:02:52;;;;;;;43.20;6.47;;;15.10;63.90;;;;;;4902446;29;20266;-75
2023/04/19 06:05:18;;;;;;;36.83;6.22;;;15.20;62.20;;;;;;4902344;29;20136;-74
2023/04/19 06:07:44;;;;;;;26.63;5.70;;;15.10;62.20;;;;;;4916781;29;20348;-73
2023/04/19 06:10:10;;;;;;;22.40;5.68;;;15.10;61.80;;;;;;4940701;29;20040;-73
2023/04/19 06:12:36;;;;;;;26.10;5.13;;;15.10;61.40;;;;;;4940405;29;20040;-74
2023/04/19 06:15:02;;;;;;;20.20;5.03;;;15.00;61.00;;;;;;4940607;29;20043;-74
2023/04/19 06:17:27;;;;;;;17.20;5.05;;;15.00;60.90;;;;;;4940280;29;20122;-72
2023/04/19 06:19:54;;;;;;;19.60;4.75;;;15.00;60.90;;;;;;4940212;29;20139;-74
2023/04/19 06:22:20;;;;;;;14.68;4.45;;;15.00;61.00;;;;;;4939564;29;20048;-74
2023/04/19 06:24:47;;;;;;;20.30;4.38;;;14.90;61.00;;;;;;4923109;29;20095;-75
2023/04/19 06:27:14;;;;;;;22.23;4.90;;;14.90;61.00;;;;;;4940409;29;20418;-73
2023/04/19 06:29:40;;;;;;;16.08;3.88;;;14.90;61.00;;;;;;4940784;29;20414;-74
2023/04/19 06:32:06;;;;;;;15.75;4.28;;;14.90;61.10;;;;;;4939383;29;20116;-74
2023/04/19 06:34:32;;;;;;;12.13;3.60;;;14.90;61.20;;;;;;4940120;29;20390;-74
2023/04/19 06:36:58;;;;;;;18.55;3.35;;;14.90;61.30;;;;;;4923546;29;20362;-75
2023/04/19 06:39:23;;;;;;;21.65;5.65;;;14.90;61.00;;;;;;4939859;29;20051;-73
2023/04/19 06:41:49;;;;;;;15.63;4.28;;;14.90;60.70;;;;;;4939685;29;20114;-77
2023/04/19 06:44:15;;;;;;;11.02;3.60;;;14.90;59.20;;;;;;4921425;29;20050;-77
2023/04/19 06:46:40;;;;;;;14.27;4.05;;;14.90;58.70;;;;;;4928889;29;20082;-78
2023/04/19 06:49:06;;;;;;;46.08;6.45;;;14.90;58.10;;;;;;4916560;29;20051;-78
2023/04/19 06:55:32;;;;;;;4.88;2.92;;;14.90;57.70;;;;;;4908142;29;20047;-79
2023/04/19 07:01:06;;;;;;;11.90;3.50;;;14.90;55.90;;;;;;4873383;29;20127;-81
2023/04/19 07:03:35;;;;;;;14.98;4.00;;;14.90;55.20;;;;;;4932599;29;20039;-78
2023/04/19 07:06:00;;;;;;;11.35;3.00;;;14.80;54.80;;;;;;4922172;29;20110;-79
2023/04/19 07:08:26;;;;;;;13.02;3.20;;;14.80;54.40;;;;;;4922215;29;20366;-80
2023/04/19 07:10:52;;;;;;;12.07;3.30;;;14.80;53.60;;;;;;4904764;29;20115;-79
2023/04/19 07:13:19;;;;;;;14.85;3.50;;;14.70;53.80;;;;;;4906802;29;20036;-81
2023/04/19 07:15:45;;;;;;;12.77;3.25;;;14.70;54.30;;;;;;4922719;29;20374;-83
2023/04/19 07:18:13;;;;;;;9.68;2.83;;;14.70;54.80;;;;;;4922299;29;20126;-81
2023/04/19 07:20:43;;;;;;;10.35;3.28;;;14.70;55.30;;;;;;4922866;29;20040;-82
2023/04/19 07:23:09;;;;;;;5.95;2.65;;;14.70;55.50;;;;;;4922565;29;20455;-80
2023/04/19 07:25:35;;;;;;;7.95;3.60;;;14.70;55.90;;;;;;4922172;29;20603;-79
2023/04/19 07:28:01;;;;;;;6.15;2.17;;;14.70;56.20;;;;;;4922515;29;20134;-80
2023/04/19 07:30:26;;;;;;;8.93;2.42;;;14.70;56.60;;;;;;4922278;29;20467;-81
2023/04/19 07:32:52;;;;;;;10.63;3.13;;;14.80;57.00;;;;;;4920584;29;20451;-82
2023/04/19 07:35:18;;;;;;;8.43;2.55;;;14.80;57.20;;;;;;4921813;29;20055;-81
2023/04/19 07:37:44;;;;;;;8.27;2.55;;;14.80;57.30;;;;;;4921822;29;20032;-81
2023/04/19 07:40:12;;;;;;;8.02;1.88;;;14.80;57.60;;;;;;4938791;29;20048;-80
2023/04/19 07:42:38;;;;;;;6.47;2.60;;;14.80;57.80;;;;;;4923248;29;20062;-75
2023/04/19 07:45:07;;;;;;;5.95;1.73;;;14.80;57.80;;;;;;4936683;29;20044;-74
2023/04/19 07:47:34;;;;;;;11.10;2.83;;;14.80;56.40;;;;;;4935609;29;20083;-76
2023/04/19 07:50:01;;;;;;;12.75;2.75;;;14.80;55.20;;;;;;4934981;29;20043;-81
2023/04/19 07:52:27;;;;;;;9.98;2.88;;;14.80;54.70;;;;;;4933710;29;20055;-78
2023/04/19 07:54:53;;;;;;;8.65;2.38;;;14.80;55.10;;;;;;4927001;29;20056;-79
2023/04/19 07:57:19;;;;;;;12.13;1.85;;;14.80;55.40;;;;;;4921305;29;20052;-79
2023/04/19 07:59:45;;;;;;;9.85;1.95;;;14.80;55.60;;;;;;4918581;29;20435;-80
2023/04/19 08:02:11;;;;;;;7.10;1.85;;;14.80;55.70;;;;;;4957943;29;20047;-78
2023/04/19 08:04:39;;;;;;;7.88;2.15;;;14.80;56.00;;;;;;4958287;29;20069;-81
2023/04/19 08:07:05;;;;;;;9.40;1.70;;;14.80;56.20;;;;;;4941300;29;20052;-81
2023/04/19 08:09:33;;;;;;;7.32;1.83;;;14.80;56.30;;;;;;4921766;29;20052;-83
2023/04/19 08:11:58;;;;;;;7.75;1.70;;;14.90;56.50;;;;;;4921358;29;20451;-80
2023/04/19 08:14:24;;;;;;;6.30;1.92;;;14.80;56.60;;;;;;4906002;29;20055;-81
2023/04/19 08:16:50;;;;;;;2.42;1.58;;;14.90;56.80;;;;;;4937863;29;20114;-81
2023/04/19 08:19:15;;;;;;;5.13;1.48;;;14.90;57.00;;;;;;4906296;29;20098;-81
2023/04/19 08:21:41;;;;;;;3.78;1.38;;;14.90;57.10;;;;;;4905754;29;20408;-80
2023/04/19 08:24:07;;;;;;;7.32;1.40;;;14.90;57.20;;;;;;4937859;29;20052;-76
2023/04/19 08:26:33;;;;;;;3.13;1.48;;;14.90;57.30;;;;;;4939489;29;20466;-75
2023/04/19 08:28:59;;;;;;;4.60;1.77;;;14.90;56.70;;;;;;4938127;29;20036;-79
2023/04/19 08:31:24;;;;;;;8.55;1.48;;;14.90;56.50;;;;;;4937711;29;20043;-78
2023/04/19 08:33:50;;;;;;;10.23;3.80;;;15.00;56.40;;;;;;4921109;29;20055;-79
2023/04/19 08:36:16;;;;;;;15.35;3.97;;;15.00;54.60;;;;;;4937444;29;20052;-79
2023/04/19 08:38:42;;;;;;;12.98;3.10;;;14.90;53.00;;;;;;4937931;29;20043;-80
2023/04/19 08:41:11;;;;;;;2.35;1.48;;;14.90;52.60;;;;;;4921199;29;20055;-78
2023/04/19 08:43:39;;;;;;;4.00;1.40;;;14.90;51.10;;;;;;4937862;29;20071;-77
2023/04/19 08:46:06;;;;;;;1.45;1.20;;;14.90;50.10;;;;;;4937641;29;20106;-78
2023/04/19 08:48:35;;;;;;;4.22;1.30;;;14.90;49.80;;;;;;4937381;29;20056;-78
2023/04/19 08:51:01;;;;;;;7.47;2.42;;;14.90;50.10;;;;;;4932069;29;20044;-74
2023/04/19 08:53:29;;;;;;;3.92;2.03;;;14.90;50.40;;;;;;4937023;29;20051;-74
2023/04/19 08:55:57;;;;;;;11.25;2.15;;;14.90;50.80;;;;;;4940450;29;20366;-75
2023/04/19 08:58:25;;;;;;;13.30;2.08;;;14.90;50.80;;;;;;4941057;29;20394;-78
2023/04/19 09:00:50;;;;;;;8.25;2.10;;;14.90;50.40;;;;;;4941469;29;20122;-74
2023/04/19 09:03:16;;;;;;;9.10;1.67;;;14.90;50.60;;;;;;4941499;29;20418;-76
2023/04/19 09:05:42;;;;;;;18.25;2.95;;;14.90;50.70;;;;;;4941630;29;20075;-79
2023/04/19 09:08:26;;;;;;;8.35;1.88;;;14.90;50.90;;;;;;4940946;29;20066;-78
2023/04/19 09:10:58;;;;;;;5.20;1.60;;;14.90;51.30;;;;;;4940074;29;20471;-79
2023/04/19 09:13:25;;;;;;;9.70;1.75;;;14.90;51.30;;;;;;4941130;29;20050;-79
2023/04/19 09:15:56;;;;;;;12.38;2.30;;;14.90;51.80;;;;;;4939819;29;20054;-78
2023/04/19 09:18:23;;;;;;;8.82;1.75;;;15.00;52.50;;;;;;4947768;29;20051;-79
2023/04/19 09:20:55;;;;;;;9.32;2.30;;;15.00;53.20;;;;;;4945790;29;20434;-77
2023/04/19 09:23:24;;;;;;;7.78;1.98;;;15.00;53.80;;;;;;4946578;29;20142;-82
2023/04/19 09:26:00;;;;;;;7.45;1.88;;;15.00;54.30;;;;;;4956409;29;20473;-78
2023/04/19 09:28:27;;;;;;;13.27;2.13;;;15.00;54.70;;;;;;4960825;29;20378;-81
2023/04/19 09:30:54;;;;;;;8.68;1.65;;;15.10;54.90;;;;;;4920644;29;20134;-83
2023/04/19 09:33:38;;;;;;;9.70;2.15;;;15.10;55.10;;;;;;4940979;29;20124;-77
2023/04/19 09:36:05;;;;;;;11.68;1.70;;;15.10;55.50;;;;;;4918764;29;20434;-80
2023/04/19 09:38:49;;;;;;;13.15;1.50;;;15.10;55.70;;;;;;4931160;29;20035;-83
2023/04/19 09:41:19;;;;;;;12.60;1.70;;;15.10;55.90;;;;;;4926758;29;20137;-82
2023/04/19 09:43:45;;;;;;;11.68;2.38;;;15.20;55.70;;;;;;4923537;29;20332;-81
2023/04/19 09:46:31;;;;;;;8.10;1.48;;;15.20;55.80;;;;;;4923617;29;20044;-83
2023/04/19 09:49:12;;;;;;;9.23;1.20;;;15.20;56.20;;;;;;4889940;29;20044;-82
2023/04/19 09:51:42;;;;;;;8.65;1.83;;;15.20;56.40;;;;;;4904883;29;20044;-83
2023/04/19 09:54:10;;;;;;;5.40;1.45;;;15.20;56.50;;;;;;4889163;29;20416;-83
2023/04/19 09:56:37;;;;;;;7.75;1.50;;;15.20;56.60;;;;;;4923372;29;20416;-82
2023/04/19 09:59:04;;;;;;;15.07;2.20;;;15.20;56.70;;;;;;4907870;29;20135;-83
2023/04/19 10:01:55;;;;;;;11.35;1.80;;;15.20;56.50;;;;;;4924333;29;20048;-82
2023/04/19 10:04:30;;;;;;;11.13;2.03;;;15.30;56.60;;;;;;4907837;29;20475;-82
2023/04/19 10:06:56;;;;;;;8.70;2.28;;;15.20;56.30;;;;;;4921917;29;20474;-77
2023/04/19 10:09:22;;;;;;;12.25;2.08;;;15.20;56.00;;;;;;4923102;29;20087;-74
2023/04/19 10:11:50;;;;;;;7.28;2.13;;;15.20;55.20;;;;;;4940177;29;20055;-75
2023/04/19 10:14:21;;;;;;;8.93;2.20;;;15.20;55.20;;;;;;4940679;29;20375;-75
2023/04/19 10:16:48;;;;;;;3.22;1.55;;;15.20;55.60;;;;;;4940082;29;20082;-79
2023/04/19 10:19:16;;;;;;;15.77;2.75;;;15.20;56.40;;;;;;4941045;29;20135;-79
2023/04/19 10:21:43;;;;;;;17.85;2.50;;;15.20;57.10;;;;;;4923641;29;20055;-81
2023/04/19 10:24:17;;;;;;;24.30;3.40;;;15.30;57.60;;;;;;4923645;29;20434;-76
2023/04/19 10:27:01;;;;;;;16.13;2.97;;;15.20;58.00;;;;;;4939014;29;20459;-75
2023/04/19 10:29:59;;;;;;;15.40;2.45;;;15.30;58.00;;;;;;4930489;29;20422;-79
2023/04/19 10:32:42;;;;;;;17.73;8.35;;;15.30;57.50;;;;;;4938034;29;20358;-80
2023/04/19 10:35:31;;;;;;;12.63;5.45;;;15.30;59.90;;;;;;4959107;29;20161;-75
2023/04/19 10:38:15;;;;;;;22.10;3.50;;;15.30;58.90;;;;;;4945331;29;20462;-73
2023/04/19 10:40:50;;;;;;;;;;;15.30;59.60;;;;;;4940228;29;20086;-74
2023/04/19 10:43:17;;;;;;;16.98;5.53;;;15.30;61.00;;;;;;4922898;29;19930;-73
2023/04/19 10:45:43;;;;;;;12.00;4.97;;;15.30;60.50;;;;;;4939887;29;20331;-75
2023/04/19 10:48:31;;;;;;;13.27;4.57;;;15.30;60.70;;;;;;4922767;29;20059;-77
2023/04/19 10:51:06;;;;;;;13.25;4.90;;;15.40;61.00;;;;;;4939971;29;20051;-76
2023/04/19 10:53:56;;;;;;;21.42;4.28;;;15.40;60.50;;;;;;4939403;29;20131;-76
2023/04/19 10:56:34;;;;;;;15.25;4.40;;;15.40;60.30;;;;;;4939629;29;20118;-77
2023/04/19 10:59:06;;;;;;;9.70;2.97;;;15.40;60.20;;;;;;4939732;29;20087;-75
2023/04/19 11:01:33;;;;;;;10.88;2.78;;;15.40;59.90;;;;;;4939884;29;20083;-75
2023/04/19 11:03:59;;;;;;;11.43;2.80;;;15.40;59.50;;;;;;4938610;29;20163;-76
2023/04/19 11:06:29;;;;;;;17.13;3.13;;;15.40;59.40;;;;;;4922571;29;20051;-76
2023/04/19 11:08:56;;;;;;;14.52;3.33;;;15.40;59.50;;;;;;4939766;29;20463;-76
2023/04/19 11:11:22;;;;;;;16.52;3.95;;;15.40;59.60;;;;;;4922463;29;20115;-77
2023/04/19 11:13:48;;;;;;;10.68;2.50;;;15.40;59.70;;;;;;4936595;29;20052;-75
2023/04/19 11:16:14;;;;;;;10.85;2.72;;;15.40;59.80;;;;;;4936474;29;20133;-75
2023/04/19 11:18:40;;;;;;;12.55;2.90;;;15.40;60.00;;;;;;4938314;29;20055;-77
2023/04/19 11:21:05;;;;;;;16.35;3.20;;;15.40;60.20;;;;;;4938786;29;20126;-78
2023/04/19 11:23:31;;;;;;;18.13;3.22;;;15.40;60.30;;;;;;4939074;29;20059;-78
2023/04/19 11:25:58;;;;;;;15.38;2.95;;;15.40;60.40;;;;;;4939393;29;20133;-73
2023/04/19 11:28:24;;;;;;;17.25;3.33;;;15.50;60.60;;;;;;4939200;29;20047;-75
2023/04/19 11:30:50;;;;;;;13.52;2.90;;;15.50;60.30;;;;;;4938166;29;20048;-74
2023/04/19 11:33:23;;;;;;;11.38;2.17;;;15.50;60.20;;;;;;4938781;29;20426;-75
2023/04/19 11:35:50;;;;;;;18.45;2.40;;;15.50;60.00;;;;;;4938541;29;20043;-73
2023/04/19 11:38:15;;;;;;;16.00;3.22;;;15.50;59.90;;;;;;4938356;29;20052;-74
2023/04/19 11:40:41;;;;;;;14.07;2.47;;;15.50;59.60;;;;;;4939070;29;20048;-74
2023/04/19 11:43:07;;;;;;;15.32;2.20;;;15.50;59.40;;;;;;4938507;29;20130;-80
2023/04/19 11:45:35;;;;;;;13.40;2.70;;;15.50;59.20;;;;;;4938772;29;20464;-73
2023/04/19 11:48:03;;;;;;;14.02;2.35;;;15.50;58.90;;;;;;4938473;29;20143;-75
2023/04/19 11:50:40;;;;;;;16.70;2.47;;;15.50;58.60;;;;;;4938909;29;20047;-75
2023/04/19 11:53:16;;;;;;;12.63;2.35;;;15.50;58.50;;;;;;4938651;29;20071;-75
2023/04/19 11:55:50;;;;;;;8.68;1.70;;;15.50;58.60;;;;;;4921598;29;20051;-75
2023/04/19 11:58:24;;;;;;;13.88;2.22;;;15.50;58.70;;;;;;4938195;29;20063;-76
2023/04/19 12:00:57;;;;;;;17.42;2.22;;;15.50;58.70;;;;;;4937288;29;20044;-77
2023/04/19 12:03:23;;;;;;;10.90;2.10;;;15.50;58.40;;;;;;4917886;29;20054;-76
2023/04/19 12:05:53;;;;;;;4.35;2.00;;;15.50;58.30;;;;;;4919416;29;20044;-75
2023/04/19 12:08:33;;;;;;;12.18;2.30;;;15.50;58.20;;;;;;4911370;29;20065;-75
2023/04/19 12:11:01;;;;;;;10.35;2.03;;;15.40;58.20;;;;;;4921356;29;20065;-76
2023/04/19 12:13:27;;;;;;;5.00;1.73;;;15.50;58.30;;;;;;4921367;29;20113;-74
2023/04/19 12:15:53;;;;;;;5.75;1.40;;;15.50;58.50;;;;;;4938485;29;20470;-76
2023/04/19 12:18:19;;;;;;;7.45;1.70;;;15.40;58.50;;;;;;4937927;29;20087;-77
2023/04/19 12:20:46;;;;;;;4.75;1.15;;;15.50;58.60;;;;;;4938181;29;20043;-78
2023/04/19 12:23:14;;;;;;;5.78;1.25;;;15.50;58.70;;;;;;4937185;29;20059;-76
2023/04/19 12:25:41;;;;;;;5.50;1.38;;;15.40;58.60;;;;;;4937604;29;20070;-77
2023/04/19 12:28:06;;;;;;;6.50;1.38;;;15.40;58.70;;;;;;4905624;29;20147;-78
2023/04/19 12:30:34;;;;;;;9.95;1.52;;;15.50;58.80;;;;;;4937770;29;20123;-80
2023/04/19 12:33:00;;;;;;;5.78;1.55;;;15.50;58.80;;;;;;4938099;29;20049;-73
2023/04/19 12:35:29;;;;;;;7.85;1.83;;;15.50;59.10;;;;;;4937361;29;20056;-78
2023/04/19 12:37:56;;;;;;;8.48;1.85;;;15.40;58.80;;;;;;4937823;29;20052;-74
2023/04/19 12:40:23;;;;;;;8.70;1.75;;;15.40;58.90;;;;;;4937946;29;20148;-75
2023/04/19 12:42:49;;;;;;;3.75;1.55;;;15.40;58.90;;;;;;4937984;29;20048;-75
2023/04/19 12:45:15;;;;;;;5.68;1.48;;;15.40;58.80;;;;;;4937538;29;20056;-76
2023/04/19 12:47:41;;;;;;;8.65;1.73;;;15.40;58.90;;;;;;4937610;29;20088;-75
2023/04/19 12:50:08;;;;;;;5.22;1.35;;;15.40;58.90;;;;;;4937487;29;20080;-76
2023/04/19 12:52:34;;;;;;;6.15;1.35;;;15.40;58.90;;;;;;4936898;29;20411;-76
2023/04/19 12:55:00;;;;;;;8.05;1.10;;;15.40;58.90;;;;;;4937337;29;20048;-76
2023/04/19 12:57:26;;;;;;;5.05;1.27;;;15.40;59.00;;;;;;4937697;29;20042;-75
2023/04/19 12:59:51;;;;;;;4.40;1.02;;;15.40;59.10;;;;;;4937689;29;20052;-75
2023/04/19 13:02:17;;;;;;;5.03;1.42;;;15.40;59.10;;;;;;4937712;29;20078;-76
2023/04/19 13:04:43;;;;;;;5.13;1.30;;;15.50;59.20;;;;;;4937076;29;20040;-74
2023/04/19 13:07:08;;;;;;;3.70;1.30;;;15.40;59.20;;;;;;4937224;29;20135;-75
2023/04/19 13:09:34;;;;;;;2.92;1.02;;;15.40;59.30;;;;;;4937711;29;20052;-75
2023/04/19 13:12:00;;;;;;;2.70;0.75;;;15.40;59.30;;;;;;4937469;29;20067;-76
2023/04/19 13:14:27;;;;;;;4.38;0.95;;;15.40;59.30;;;;;;4937310;29;20047;-75
2023/04/19 13:16:53;;;;;;;2.72;1.40;;;15.40;59.40;;;;;;4938098;29;20087;-75
2023/04/19 13:19:19;;;;;;;5.50;1.00;;;15.50;59.50;;;;;;4936980;29;20059;-76
2023/04/19 13:21:44;;;;;;;3.03;1.02;;;15.50;59.60;;;;;;4937677;29;20047;-76
2023/04/19 13:24:10;;;;;;;3.78;0.93;;;15.40;59.60;;;;;;4936897;29;20478;-76
2023/04/19 13:26:37;;;;;;;2.55;0.85;;;15.40;59.70;;;;;;4937488;29;20130;-75
2023/04/19 13:29:03;;;;;;;2.00;0.63;;;15.40;59.80;;;;;;4937720;29;20434;-76
2023/04/19 13:31:29;;;;;;;4.35;0.77;;;15.40;59.90;;;;;;4937585;29;20078;-76
2023/04/19 13:33:55;;;;;;;4.25;1.30;;;15.40;59.90;;;;;;4932823;29;20051;-76
2023/04/19 13:36:21;;;;;;;4.03;1.50;;;15.40;59.90;;;;;;4928124;29;20403;-79
2023/04/19 13:38:50;;;;;;;4.68;1.67;;;15.40;59.50;;;;;;4928402;29;20082;-78
2023/04/19 13:41:16;;;;;;;4.32;1.90;;;15.40;58.90;;;;;;4928959;29;20048;-75
2023/04/19 13:43:42;;;;;;;2.90;1.85;;;15.40;58.10;;;;;;4930337;29;20129;-75
2023/04/19 13:46:08;;;;;;;3.70;1.73;;;15.40;57.90;;;;;;4933543;29;20040;-75
2023/04/19 13:48:33;;;;;;;6.70;1.73;;;15.40;57.40;;;;;;4930331;29;20044;-78
2023/04/19 13:50:59;;;;;;;2.72;1.73;;;15.40;57.10;;;;;;4930254;29;20043;-76
2023/04/19 13:53:27;;;;;;;3.53;1.88;;;15.40;56.70;;;;;;4931848;29;20102;-75
2023/04/19 13:55:53;;;;;;;9.30;2.10;;;15.40;56.80;;;;;;4928087;29;20056;-77
2023/04/19 13:58:19;;;;;;;4.80;1.92;;;15.40;56.30;;;;;;4920528;29;20062;-78
2023/04/19 14:00:46;;;;;;;4.82;1.90;;;15.40;56.50;;;;;;4921689;29;20036;-74
2023/04/19 14:03:13;;;;;;;3.58;1.40;;;15.40;56.90;;;;;;4921310;29;20055;-76
2023/04/19 14:05:39;;;;;;;4.75;1.60;;;15.40;57.70;;;;;;4932466;29;20055;-76
2023/04/19 14:08:05;;;;;;;5.65;1.65;;;15.40;58.20;;;;;;4940291;29;20439;-76
2023/04/19 14:10:34;;;;;;;3.15;1.40;;;15.40;58.50;;;;;;4940568;29;20051;-78
2023/04/19 14:13:00;;;;;;;7.38;1.88;;;15.40;59.10;;;;;;4908096;29;20043;-77
2023/04/19 14:15:27;;;;;;;3.90;1.20;;;15.40;59.70;;;;;;4940185;29;20382;-80
2023/04/19 14:17:53;;;;;;;3.58;1.05;;;15.40;60.30;;;;;;4940296;29;20048;-79
2023/04/19 14:20:19;;;;;;;6.65;1.65;;;15.50;60.50;;;;;;4940327;29;20055;-78
2023/04/19 14:22:45;;;;;;;5.07;1.10;;;15.50;60.40;;;;;;4940309;29;20082;-76
2023/04/19 14:25:13;;;;;;;5.57;1.00;;;15.60;60.50;;;;;;4940205;29;20135;-78
2023/04/19 14:27:39;;;;;;;5.18;1.38;;;15.60;60.50;;;;;;4940524;29;20051;-76
2023/04/19 14:30:06;;;;;;;6.68;1.20;;;15.60;60.50;;;;;;4940094;29;20058;-75
2023/04/19 14:32:32;;;;;;;6.18;1.20;;;15.60;60.60;;;;;;4923078;29;20406;-77
2023/04/19 14:34:58;;;;;;;13.20;1.63;;;15.70;60.70;;;;;;4907355;29;20134;-76
2023/04/19 14:37:24;;;;;;;11.95;1.90;;;15.70;61.00;;;;;;4940080;29;20454;-77
2023/04/19 14:39:50;;;;;;;14.50;2.53;;;15.70;61.40;;;;;;4940035;29;20052;-75
2023/04/19 14:42:16;;;;;;;17.70;2.88;;;15.70;62.00;;;;;;4940093;29;20163;-75
2023/04/19 14:44:41;;;;;;;21.35;3.90;;;15.80;63.70;;;;;;4939488;29;20051;-73
2023/04/19 14:47:07;;;;;;;14.68;2.80;;;15.80;64.80;;;;;;4939648;29;20122;-74
2023/04/19 14:49:33;;;;;;;25.70;3.50;;;15.90;65.60;;;;;;4939668;29;20052;-72
2023/04/19 14:51:58;;;;;;;24.48;3.78;;;15.90;67.30;;;;;;4939866;29;20047;-75
2023/04/19 14:54:24;;;;;;;25.35;3.90;;;15.90;67.30;;;;;;4939285;29;20355;-73
2023/04/19 14:56:51;;;;;;;20.98;3.20;;;16.00;68.00;;;;;;4940323;29;20043;-72
2023/04/19 14:59:17;;;;;;;16.73;3.40;;;16.00;69.00;;;;;;4940165;29;20059;-72
2023/04/19 15:01:43;;;;;;;28.45;5.32;;;16.00;69.70;;;;;;4939720;29;20047;-72
2023/04/19 15:04:08;;;;;;;21.17;4.97;;;16.10;69.70;;;;;;4922487;29;20039;-72
2023/04/19 15:06:34;;;;;;;18.55;3.63;;;16.20;70.40;;;;;;4939540;29;20110;-72
2023/04/19 15:09:00;;;;;;;25.05;3.60;;;16.20;70.00;;;;;;4940033;29;20043;-71
2023/04/19 15:11:25;;;;;;;15.63;3.95;;;16.20;70.00;;;;;;4939392;29;20066;-72
2023/04/19 15:13:51;;;;;;;17.27;4.13;;;16.30;69.70;;;;;;4939087;29;20044;-78
2023/04/19 15:16:17;;;;;;;21.15;3.85;;;16.30;69.40;;;;;;4923034;29;20047;-73
2023/04/19 15:18:43;;;;;;;22.30;4.22;;;16.30;69.40;;;;;;4939227;29;20110;-72
2023/04/19 15:21:08;;;;;;;19.95;3.47;;;16.30;69.50;;;;;;4938789;29;20120;-73
2023/04/19 15:23:34;;;;;;;21.83;3.50;;;16.30;69.80;;;;;;4939082;29;20048;-73
2023/04/19 15:26:00;;;;;;;19.00;3.67;;;16.30;69.10;;;;;;4938764;29;20043;-73
2023/04/19 15:28:26;;;;;;;26.45;4.43;;;16.30;68.80;;;;;;4938948;29;20387;-76
2023/04/19 15:31:03;;;;;;;19.15;3.78;;;16.30;67.80;;;;;;4938460;29;20040;-74
2023/04/19 15:33:29;;;;;;;18.98;3.95;;;16.30;67.30;;;;;;4939055;29;20447;-74
2023/04/19 15:35:55;;;;;;;19.65;3.47;;;16.40;66.50;;;;;;4939046;29;20055;-73
2023/04/19 15:38:26;;;;;;;13.60;3.08;;;16.50;64.50;;;;;;4939487;29;20130;-72
2023/04/19 15:40:53;;;;;;;15.07;3.17;;;16.50;61.90;;;;;;4938797;29;20139;-73
2023/04/19 15:43:21;;;;;;;13.05;2.20;;;16.50;61.00;;;;;;4938627;29;20063;-72
2023/04/19 15:45:47;;;;;;;13.02;2.33;;;16.60;59.70;;;;;;4938172;29;20051;-73
2023/04/19 15:48:13;;;;;;;9.18;2.38;;;16.50;58.70;;;;;;4938775;29;20526;-73
2023/04/19 15:50:38;;;;;;;10.95;1.80;;;16.60;57.20;;;;;;4938167;29;20052;-74
2023/04/19 15:53:05;;;;;;;10.55;2.30;;;16.50;57.60;;;;;;4938215;29;20050;-74
2023/04/19 15:55:32;;;;;;;10.90;2.13;;;16.50;57.80;;;;;;4938466;29;20368;-75
2023/04/19 15:57:59;;;;;;;9.40;2.03;;;16.40;57.90;;;;;;4921923;29;20087;-75
2023/04/19 16:00:25;;;;;;;15.85;2.28;;;16.40;58.40;;;;;;4938175;29;20110;-76
2023/04/19 16:02:52;;;;;;;15.82;2.13;;;16.30;58.90;;;;;;4938587;29;20048;-77
2023/04/19 16:05:18;;;;;;;11.43;2.20;;;16.30;59.40;;;;;;4937933;29;20039;-75
2023/04/19 16:07:44;;;;;;;12.02;1.95;;;16.30;59.90;;;;;;4938368;29;20496;-76
2023/04/19 16:10:11;;;;;;;11.77;2.05;;;16.30;60.40;;;;;;4938949;29;20056;-77
2023/04/19 16:12:37;;;;;;;11.07;2.03;;;16.30;60.80;;;;;;4937790;29;20044;-75
2023/04/19 16:15:04;;;;;;;22.02;2.53;;;16.30;61.10;;;;;;4921487;29;20066;-77
2023/04/19 16:17:30;;;;;;;14.48;3.08;;;16.30;61.60;;;;;;4937346;29;20070;-76
2023/04/19 16:19:56;;;;;;;24.35;2.85;;;16.30;61.90;;;;;;4928158;29;20459;-76
2023/04/19 16:22:22;;;;;;;17.38;3.00;;;16.30;62.10;;;;;;4934115;29;20087;-76
2023/04/19 16:24:48;;;;;;;23.52;3.60;;;16.30;62.30;;;;;;4933304;29;20475;-76
2023/04/19 16:27:14;;;;;;;21.88;3.38;;;16.30;62.50;;;;;;4917978;29;20052;-76
2023/04/19 16:29:40;;;;;;;24.05;3.65;;;16.30;62.60;;;;;;4918899;29;20501;-74
2023/04/19 16:32:05;;;;;;;18.95;2.70;;;16.30;62.90;;;;;;4931794;29;20059;-77
2023/04/19 16:34:31;;;;;;;25.48;3.40;;;16.30;63.70;;;;;;4938188;29;20139;-77
2023/04/19 16:36:57;;;;;;;16.55;2.97;;;16.30;62.60;;;;;;4938031;29;20047;-77
2023/04/19 16:39:23;;;;;;;21.92;3.75;;;16.30;62.30;;;;;;4939549;29;20117;-77
2023/04/19 16:41:49;;;;;;;14.40;2.65;;;16.40;61.90;;;;;;4946187;29;20067;-76
2023/04/19 16:44:15;;;;;;;12.32;3.03;;;16.40;61.60;;;;;;4937802;29;20451;-77
2023/04/19 16:46:41;;;;;;;12.52;3.13;;;16.30;61.30;;;;;;4937933;29;20179;-76
2023/04/19 16:49:07;;;;;;;17.42;2.90;;;16.30;61.00;;;;;;4938318;29;20062;-77
2023/04/19 16:51:33;;;;;;;8.95;2.58;;;16.30;60.30;;;;;;4937564;29;20363;-76
2023/04/19 16:53:58;;;;;;;11.40;2.40;;;16.40;59.80;;;;;;4937541;29;20051;-78
2023/04/19 16:56:24;;;;;;;17.58;3.00;;;16.30;59.30;;;;;;4937711;29;20191;-78
2023/04/19 16:58:50;;;;;;;13.82;2.58;;;16.30;59.80;;;;;;4937775;29;20048;-76
2023/04/19 17:01:17;;;;;;;22.48;3.28;;;16.30;59.90;;;;;;4937669;29;20119;-75
2023/04/19 17:03:44;;;;;;;23.20;3.95;;;16.40;60.10;;;;;;4938005;29;20047;-75
2023/04/19 17:06:09;;;;;;;17.85;3.55;;;16.40;60.00;;;;;;4937565;29;20040;-76
2023/04/19 17:08:37;;;;;;;17.17;3.22;;;16.30;60.20;;;;;;4936342;29;20067;-75
2023/04/19 17:11:03;;;;;;;28.08;4.25;;;16.30;60.50;;;;;;4919574;29;20044;-76
2023/04/19 17:13:29;;;;;;;21.17;4.45;;;16.40;61.00;;;;;;4937406;29;20118;-75
2023/04/19 17:15:54;;;;;;;27.08;3.13;;;16.30;60.80;;;;;;4938574;29;20534;-75
2023/04/19 17:18:21;;;;;;;15.02;2.35;;;16.30;60.70;;;;;;4940714;29;20052;-75
2023/04/19 17:20:46;;;;;;;16.83;3.50;;;16.30;60.80;;;;;;4941167;29;20514;-76
2023/04/19 17:23:13;;;;;;;13.75;2.53;;;16.30;60.90;;;;;;4940925;29;20043;-74
2023/04/19 17:25:39;;;;;;;17.23;3.00;;;16.30;61.20;;;;;;4941110;29;20087;-76
2023/04/19 17:28:04;;;;;;;15.95;2.97;;;16.20;61.50;;;;;;4924127;29;20083;-75
2023/04/19 17:30:30;;;;;;;19.98;2.42;;;16.20;61.60;;;;;;4941105;29;20036;-75
2023/04/19 17:32:56;;;;;;;14.63;3.13;;;16.20;61.80;;;;;;4940904;29;20115;-75
2023/04/19 17:35:22;;;;;;;10.30;3.22;;;16.20;62.10;;;;;;4941426;29;20052;-75
2023/04/19 17:37:48;;;;;;;12.27;3.67;;;16.20;61.90;;;;;;4941819;29;20122;-75
2023/04/19 17:40:14;;;;;;;9.55;2.28;;;16.20;62.20;;;;;;4940586;29;20467;-74
2023/04/19 17:42:39;;;;;;;15.38;2.50;;;16.20;62.40;;;;;;4940784;29;20055;-74
2023/04/19 17:45:09;;;;;;;9.68;2.22;;;16.10;62.40;;;;;;4941199;29;20142;-74
2023/04/19 17:47:38;;;;;;;11.18;2.45;;;16.10;62.50;;;;;;4940957;29;20048;-75
2023/04/19 17:50:07;;;;;;;11.02;2.00;;;16.10;62.70;;;;;;4940901;29;20048;-76
2023/04/19 17:52:33;;;;;;;13.43;2.10;;;16.10;62.70;;;;;;4939924;29;20099;-74
2023/04/19 17:54:59;;;;;;;11.70;1.65;;;16.10;62.70;;;;;;4940125;29;20051;-76